Terminal Aerodrome Forecast
Issued by NWS

Home | Current Version | Previous Version | Text Only | Print | Product List | Glossary On
Versions: 1 2 3 4 5 6 7 8 9 10 11 12
151
FTUS41 KCAR 222336
TAFBHB
TAF
KBHB 222336Z 2300/2324 22004KT P6SM BKN200
     FM231200 18006KT P6SM BKN040
     FM231800 18010KT P6SM BKN025
     FM232100 21012KT P6SM BKN015=

USA.gov is the U.S. government's official web portal to all federal, state and local government web resources and services.